Weather at Donald's Air Park Inc. Airport

Public forecast

Using degrees Fahrenheit for public forecast. Weather courtesy of forecast.io.

Closest aviation weather report (METAR) to Donald's Air Park Inc. Airport

Closest report is Northeastern Regional Airport, 18.4 nm (34.0 km) NNE. Retrieved 2020/09/23 15:35 UTC (0 seconds ago):

KEDE 231535Z AUTO 32003KT 10SM CLR 22/14 A3008 RMK AO2 T02150141

Closest aviation forecast (TAF) to Donald's Air Park Inc. Airport

Closest forecast is Pitt Greenville Airport, 35.4 nm (65.5 km) W. Retrieved 2020/09/23 12:27 UTC (3 hours ago):

TAF KPGV 231120Z 2312/2412 26004KT P6SM SCT250 AMD LTD TO CLD VIS AND WIND